Time;durP1;ratioP1;P1;durP2;ratioP2;P2;SDS_P1;SDS_P2;PMS_P1;PMS_P2;Temp;Humidity;BMP_temperature;BMP_pressure;BME280_temperature;BME280_humidity;BME280_pressure;Samples;Min_cycle;Max_cycle;Signal;HPM_P1;HPM_P2
2024/04/17 00:32:48;;;;;;;5.60;1.13;;;6.00;99.90;;;;;;6572678;21;20560;-83
2024/04/17 00:35:14;;;;;;;3.70;0.90;;;6.10;99.90;;;;;;6577082;21;20260;-84
2024/04/17 00:37:42;;;;;;;3.97;1.17;;;6.10;99.90;;;;;;6576247;21;20325;-85
2024/04/17 00:40:08;;;;;;;3.00;1.10;;;6.10;99.90;;;;;;6577327;21;20571;-83
2024/04/17 00:42:37;;;;;;;3.77;0.97;;;6.00;99.90;;;;;;6524791;22;20273;-83
2024/04/17 00:45:03;;;;;;;4.30;1.27;;;5.90;99.90;;;;;;6526126;22;20249;-83
2024/04/17 01:47:57;;;;;;;3.97;1.20;;;5.40;99.90;;;;;;6630506;21;20714;-81
2024/04/17 01:50:27;;;;;;;4.20;1.17;;;5.40;99.90;;;;;;6630100;21;20631;-81
2024/04/17 01:52:56;;;;;;;2.60;0.93;;;5.40;99.90;;;;;;6629753;21;20220;-81
2024/04/17 01:55:22;;;;;;;3.17;1.37;;;5.40;99.90;;;;;;6630651;21;20240;-81
2024/04/17 01:57:50;;;;;;;2.57;1.03;;;5.40;99.90;;;;;;6577101;21;20229;-81
2024/04/17 02:00:16;;;;;;;3.47;1.30;;;5.40;99.90;;;;;;6576988;21;20220;-81
2024/04/17 02:02:44;;;;;;;2.10;1.13;;;5.30;99.90;;;;;;6573600;21;20371;-87
2024/04/17 02:05:13;;;;;;;2.90;1.20;;;5.30;99.90;;;;;;6577178;21;20233;-87
2024/04/17 02:07:41;;;;;;;4.23;1.50;;;5.30;99.90;;;;;;6577599;21;20229;-87
2024/04/17 02:10:07;;;;;;;3.00;1.20;;;5.30;99.90;;;;;;6578702;21;20229;-88
2024/04/17 02:12:36;;;;;;;2.03;1.17;;;5.30;99.90;;;;;;6577601;21;20280;-87
2024/04/17 02:15:02;;;;;;;2.80;1.40;;;5.30;99.90;;;;;;6578371;21;20233;-87
2024/04/17 02:17:30;;;;;;;4.37;1.57;;;5.30;99.90;;;;;;6578229;21;20807;-87
2024/04/17 02:19:56;;;;;;;2.73;1.00;;;5.30;99.90;;;;;;6577226;21;20322;-87
2024/04/17 02:22:27;;;;;;;2.90;1.43;;;5.20;99.90;;;;;;6577462;21;20277;-87
2024/04/17 02:24:53;;;;;;;3.40;1.20;;;5.30;99.90;;;;;;6578235;21;20693;-87
2024/04/17 02:27:21;;;;;;;1.33;1.07;;;5.20;99.90;;;;;;6576790;21;20225;-87
2024/04/17 02:29:47;;;;;;;3.63;1.13;;;5.30;99.90;;;;;;6577946;21;20681;-88
2024/04/17 02:32:16;;;;;;;5.23;1.40;;;5.30;99.90;;;;;;6577093;21;20320;-88
2024/04/17 02:34:42;;;;;;;3.93;1.73;;;5.30;99.90;;;;;;6577859;21;20221;-89
2024/04/17 02:37:10;;;;;;;3.60;1.30;;;5.30;99.90;;;;;;6578075;21;20221;-87
2024/04/17 02:39:38;;;;;;;2.87;0.93;;;5.20;99.90;;;;;;6578134;21;20536;-87
2024/04/17 02:42:07;;;;;;;5.13;1.60;;;5.20;99.90;;;;;;6577416;21;20229;-87
2024/04/17 02:44:33;;;;;;;5.37;1.53;;;5.10;99.90;;;;;;6576849;21;20222;-87
2024/04/17 02:47:01;;;;;;;4.83;1.50;;;5.00;99.90;;;;;;6575600;21;20723;-87
2024/04/17 02:49:27;;;;;;;4.33;1.30;;;4.90;99.90;;;;;;6578645;21;20453;-87
2024/04/17 02:51:56;;;;;;;2.53;1.47;;;5.00;99.90;;;;;;6575885;21;20290;-87
2024/04/17 02:54:22;;;;;;;6.87;1.30;;;5.10;99.90;;;;;;6577897;21;20217;-87
2024/04/17 02:56:53;;;;;;;4.90;1.20;;;5.10;99.90;;;;;;6579029;21;20229;-87
2024/04/17 02:59:18;;;;;;;4.77;1.43;;;5.10;99.90;;;;;;6578298;21;20692;-87
2024/04/17 03:01:47;;;;;;;5.47;1.23;;;5.10;99.90;;;;;;6576970;21;20279;-87
2024/04/17 03:04:13;;;;;;;3.33;1.10;;;5.10;99.90;;;;;;6577936;21;20229;-87
2024/04/17 03:06:41;;;;;;;3.63;1.80;;;5.10;99.90;;;;;;6577709;21;20340;-87
2024/04/17 03:09:07;;;;;;;3.57;1.30;;;5.10;99.90;;;;;;6577335;21;20221;-87
2024/04/17 03:11:35;;;;;;;6.07;1.53;;;5.10;99.90;;;;;;6577066;21;20754;-87
2024/04/17 03:14:04;;;;;;;3.47;1.30;;;5.10;99.90;;;;;;6576121;21;20259;-87
2024/04/17 03:16:32;;;;;;;4.17;1.30;;;5.10;99.90;;;;;;6577472;21;20225;-87
2024/04/17 03:18:58;;;;;;;7.40;1.63;;;5.00;99.90;;;;;;6577273;21;20384;-87
2024/04/17 03:21:28;;;;;;;2.97;1.00;;;5.00;99.90;;;;;;6577982;21;20237;-86
2024/04/17 03:23:54;;;;;;;5.43;1.60;;;5.00;99.90;;;;;;6576886;21;20268;-87
2024/04/17 03:26:23;;;;;;;1.97;1.10;;;5.00;99.90;;;;;;6577015;21;20364;-87
2024/04/17 03:28:49;;;;;;;4.17;1.40;;;5.00;99.90;;;;;;6577378;21;20364;-87
2024/04/17 03:31:20;;;;;;;5.43;1.47;;;5.00;99.90;;;;;;6575929;21;20488;-87
2024/04/17 03:33:46;;;;;;;2.43;1.40;;;5.00;99.90;;;;;;6576727;21;20271;-87
2024/04/17 03:36:15;;;;;;;1.77;1.30;;;5.00;99.90;;;;;;6576115;21;20548;-88
2024/04/17 03:38:43;;;;;;;3.43;1.40;;;5.00;99.90;;;;;;6576967;21;20221;-87
2024/04/17 03:41:12;;;;;;;3.27;1.90;;;5.00;99.90;;;;;;6576050;21;20285;-87
2024/04/17 03:43:40;;;;;;;5.77;1.47;;;5.10;99.90;;;;;;6576274;21;20605;-87
2024/04/17 03:46:09;;;;;;;3.77;1.50;;;5.10;99.90;;;;;;6576629;21;20798;-87
2024/04/17 03:48:37;;;;;;;3.73;1.40;;;5.10;99.90;;;;;;6575741;21;20259;-89
2024/04/17 03:51:06;;;;;;;3.17;1.37;;;5.10;99.90;;;;;;6579452;21;20229;-89
2024/04/17 03:53:32;;;;;;;5.30;1.63;;;5.00;99.90;;;;;;6579808;21;20221;-88
2024/04/17 03:56:01;;;;;;;5.03;1.80;;;5.00;99.90;;;;;;6578951;21;20684;-89
2024/04/17 03:58:27;;;;;;;3.77;1.80;;;4.90;99.90;;;;;;6577798;21;20260;-89
2024/04/17 04:00:55;;;;;;;1.93;1.50;;;5.00;99.90;;;;;;6578019;21;20728;-89
2024/04/17 04:03:21;;;;;;;4.33;1.80;;;4.90;99.90;;;;;;6579894;21;20272;-89
2024/04/17 04:05:52;;;;;;;5.27;1.87;;;4.90;99.90;;;;;;6579228;21;20228;-89
2024/04/17 04:08:18;;;;;;;2.03;1.50;;;4.90;99.90;;;;;;6579372;21;20263;-88
2024/04/17 04:10:47;;;;;;;5.97;1.27;;;4.90;99.90;;;;;;6578682;21;20225;-89
2024/04/17 04:13:13;;;;;;;5.77;1.87;;;4.90;99.90;;;;;;6578385;21;20221;-89
2024/04/17 04:15:41;;;;;;;2.70;1.40;;;5.00;99.90;;;;;;6579165;21;20263;-89
2024/04/17 04:18:07;;;;;;;6.00;1.93;;;5.00;99.90;;;;;;6579082;21;20579;-89
2024/04/17 04:20:37;;;;;;;6.17;1.87;;;5.00;99.90;;;;;;6577294;21;20221;-90
2024/04/17 04:23:05;;;;;;;5.10;1.40;;;5.00;99.90;;;;;;6578135;21;20229;-89
2024/04/17 04:25:34;;;;;;;3.50;1.53;;;5.00;99.90;;;;;;6578651;21;20648;-89
2024/04/17 04:28:00;;;;;;;2.40;1.40;;;5.00;99.90;;;;;;6579253;21;20222;-88
2024/04/17 04:30:28;;;;;;;3.07;1.57;;;5.10;99.90;;;;;;6578609;21;20221;-86
2024/04/17 04:32:54;;;;;;;3.00;1.47;;;5.10;99.90;;;;;;6576233;21;20276;-88
2024/04/17 04:35:22;;;;;;;4.97;1.80;;;5.10;99.90;;;;;;6577530;21;20931;-87
2024/04/17 04:37:48;;;;;;;4.13;1.80;;;5.10;99.90;;;;;;6578538;21;20226;-87
2024/04/17 04:40:20;;;;;;;4.47;1.33;;;5.10;99.90;;;;;;6578134;21;20564;-88
2024/04/17 04:42:45;;;;;;;3.60;1.80;;;5.10;99.90;;;;;;6577366;21;20794;-88
2024/04/17 04:45:14;;;;;;;4.90;1.53;;;5.10;99.90;;;;;;6578346;21;20225;-88
2024/04/17 04:47:40;;;;;;;5.17;2.30;;;5.10;99.90;;;;;;6578395;21;20260;-88
2024/04/17 04:50:09;;;;;;;1.73;1.50;;;5.10;99.90;;;;;;6577929;21;20544;-88
2024/04/17 04:52:34;;;;;;;3.63;1.60;;;5.10;99.90;;;;;;6577366;21;20288;-87
2024/04/17 04:55:04;;;;;;;3.10;1.70;;;5.10;99.90;;;;;;6577962;21;20225;-88
2024/04/17 04:57:33;;;;;;;3.17;1.67;;;5.00;99.90;;;;;;6578617;21;20221;-87
2024/04/17 05:00:01;;;;;;;4.63;1.57;;;5.10;99.90;;;;;;6578434;21;20732;-87
2024/04/17 05:02:27;;;;;;;4.37;2.00;;;5.00;99.90;;;;;;6577532;21;20284;-88
2024/04/17 05:04:56;;;;;;;6.40;2.20;;;5.00;99.90;;;;;;6578058;21;20217;-87
2024/04/17 05:07:21;;;;;;;4.77;1.73;;;5.00;99.90;;;;;;6578515;21;20221;-89
2024/04/17 05:09:50;;;;;;;4.30;1.90;;;5.00;99.90;;;;;;6577382;21;20602;-88
2024/04/17 05:12:16;;;;;;;6.33;2.20;;;5.00;99.90;;;;;;6577382;21;20305;-88
2024/04/17 05:14:47;;;;;;;8.03;2.13;;;5.00;99.90;;;;;;6577479;21;20323;-87
2024/04/17 05:17:13;;;;;;;6.43;2.00;;;5.00;99.90;;;;;;6577620;21;20226;-88
2024/04/17 05:19:42;;;;;;;3.87;1.60;;;4.90;99.90;;;;;;6576812;21;20264;-87
2024/04/17 05:22:07;;;;;;;6.93;2.17;;;4.90;99.90;;;;;;6577752;21;20600;-88
2024/04/17 05:24:36;;;;;;;7.50;2.23;;;4.80;99.90;;;;;;6577330;21;20452;-88
2024/04/17 05:27:02;;;;;;;5.33;1.77;;;4.90;99.90;;;;;;6578751;21;20221;-87
2024/04/17 05:29:31;;;;;;;5.90;2.40;;;4.90;99.90;;;;;;6577690;21;20467;-88
2024/04/17 05:31:59;;;;;;;3.87;2.23;;;4.90;99.90;;;;;;6577061;21;20237;-88
2024/04/17 05:34:28;;;;;;;5.00;2.10;;;4.90;99.90;;;;;;6576969;21;20225;-88
2024/04/17 05:36:54;;;;;;;5.83;2.00;;;5.00;99.90;;;;;;6577382;21;20699;-88
2024/04/17 05:39:22;;;;;;;3.40;2.03;;;5.00;99.90;;;;;;6577930;21;20331;-87
2024/04/17 05:41:48;;;;;;;4.17;2.30;;;5.10;99.90;;;;;;6577290;21;20237;-88
2024/04/17 05:44:17;;;;;;;6.33;2.27;;;5.10;99.90;;;;;;6577619;21;20460;-89
2024/04/17 05:46:43;;;;;;;6.07;2.13;;;5.20;99.90;;;;;;6576098;21;20225;-88
2024/04/17 05:49:14;;;;;;;7.13;2.70;;;5.30;99.90;;;;;;6576565;21;20512;-88
2024/04/17 05:51:40;;;;;;;4.93;2.67;;;5.30;99.90;;;;;;6577139;21;20238;-88
2024/04/17 05:54:09;;;;;;;5.67;2.00;;;5.30;99.90;;;;;;6578231;21;20221;-88
2024/04/17 05:56:37;;;;;;;4.77;2.13;;;5.40;99.90;;;;;;6577227;21;20281;-88
2024/04/17 05:59:06;;;;;;;5.00;2.50;;;5.50;99.90;;;;;;6576554;21;20248;-88
2024/04/17 06:01:32;;;;;;;4.80;2.27;;;5.60;99.90;;;;;;6573638;21;20743;-89
2024/04/17 06:04:00;;;;;;;4.93;2.00;;;5.70;99.90;;;;;;6577252;21;20217;-88
2024/04/17 06:06:29;;;;;;;3.60;1.97;;;5.80;99.90;;;;;;6578439;21;20226;-89
2024/04/17 06:08:57;;;;;;;7.57;2.80;;;5.90;99.90;;;;;;6578207;21;20226;-88
2024/04/17 06:11:24;;;;;;;6.17;2.30;;;6.00;99.90;;;;;;6575633;21;20233;-88
2024/04/17 06:13:53;;;;;;;4.77;2.30;;;6.10;99.90;;;;;;6577861;21;20217;-88
2024/04/17 06:16:19;;;;;;;6.67;2.47;;;6.20;99.90;;;;;;6577609;21;20225;-88
2024/04/17 06:18:47;;;;;;;8.17;2.20;;;6.30;99.90;;;;;;6578320;21;20225;-88
2024/04/17 06:21:13;;;;;;;4.57;2.00;;;6.40;99.90;;;;;;6574749;21;20284;-88
2024/04/17 06:23:44;;;;;;;7.23;2.27;;;6.50;99.90;;;;;;6574229;21;20229;-88
2024/04/17 06:26:10;;;;;;;6.13;2.40;;;6.70;99.90;;;;;;6574105;21;20253;-88
2024/04/17 06:28:39;;;;;;;3.40;2.10;;;6.80;99.90;;;;;;6574318;21;20276;-89
2024/04/17 06:31:05;;;;;;;5.13;1.90;;;6.90;99.90;;;;;;6573268;21;20229;-88
2024/04/17 06:33:34;;;;;;;5.17;2.77;;;7.10;99.90;;;;;;6573828;21;20753;-88
2024/04/17 06:36:00;;;;;;;5.00;2.27;;;7.20;99.90;;;;;;6576120;21;20553;-88
2024/04/17 06:38:28;;;;;;;7.10;2.53;;;7.40;99.90;;;;;;6577390;21;20229;-87
2024/04/17 06:40:57;;;;;;;6.77;2.20;;;7.50;99.90;;;;;;6577268;21;20284;-88
2024/04/17 06:43:26;;;;;;;2.17;1.80;;;7.50;99.90;;;;;;6577204;21;20256;-89
2024/04/17 06:45:52;;;;;;;5.43;2.10;;;7.70;99.90;;;;;;6577333;21;20217;-87
2024/04/17 06:48:20;;;;;;;7.77;2.23;;;7.70;99.90;;;;;;6576552;21;20267;-88
2024/04/17 06:50:46;;;;;;;5.67;2.57;;;7.90;99.90;;;;;;6577106;21;20345;-88
2024/04/17 06:53:14;;;;;;;3.63;2.13;;;8.00;99.90;;;;;;6576994;21;20221;-88
2024/04/17 06:55:41;;;;;;;5.03;1.87;;;8.20;99.90;;;;;;6576845;21;20222;-88
2024/04/17 06:58:12;;;;;;;5.13;2.17;;;8.10;99.90;;;;;;6576354;21;20226;-88
2024/04/17 07:00:38;;;;;;;4.67;1.80;;;8.30;99.90;;;;;;6576253;21;20565;-89
2024/04/17 07:03:07;;;;;;;8.00;1.70;;;8.20;99.90;;;;;;6576458;21;20225;-89
2024/04/17 07:05:33;;;;;;;7.70;1.80;;;8.20;99.90;;;;;;6577152;21;20267;-88
2024/04/17 07:08:01;;;;;;;5.60;1.63;;;8.30;99.90;;;;;;6575011;21;20221;-88
2024/04/17 07:10:27;;;;;;;2.50;1.53;;;8.30;99.90;;;;;;6577319;21;20677;-89
2024/04/17 07:12:56;;;;;;;6.50;1.97;;;8.30;99.90;;;;;;6574169;21;20233;-88
2024/04/17 07:15:25;;;;;;;11.77;2.10;;;8.30;99.90;;;;;;6576672;21;20240;-88
2024/04/17 07:17:54;;;;;;;4.47;1.53;;;8.40;99.90;;;;;;6575783;21;20271;-88
2024/04/17 07:20:20;;;;;;;5.00;1.60;;;8.60;99.90;;;;;;6577203;21;20225;-88
2024/04/17 07:22:48;;;;;;;5.27;1.67;;;8.70;99.90;;;;;;6576641;21;20237;-89
2024/04/17 07:25:16;;;;;;;3.63;1.70;;;8.80;99.90;;;;;;6577155;21;20805;-88
2024/04/17 07:27:46;;;;;;;7.27;2.00;;;8.80;99.90;;;;;;6576538;21;20285;-88
2024/04/17 07:30:12;;;;;;;3.63;1.60;;;8.80;99.90;;;;;;6576468;21;20225;-89
2024/04/17 07:32:43;;;;;;;3.73;1.57;;;8.80;99.90;;;;;;6576098;21;20287;-89
2024/04/17 07:35:18;;;;;;;3.97;1.43;;;8.80;99.90;;;;;;6576176;21;20277;-88
2024/04/17 07:37:46;;;;;;;4.07;1.30;;;8.70;99.90;;;;;;6577380;21;20225;-89
2024/04/17 07:40:14;;;;;;;3.67;1.50;;;8.60;99.90;;;;;;6577261;21;20261;-88
2024/04/17 07:42:42;;;;;;;2.77;1.20;;;8.60;99.90;;;;;;6576879;21;20347;-88
2024/04/17 07:45:08;;;;;;;2.90;1.33;;;8.60;99.90;;;;;;6577688;21;20237;-88
2024/04/17 07:47:36;;;;;;;3.63;1.37;;;8.70;99.90;;;;;;6578233;21;20356;-88
2024/04/17 07:50:06;;;;;;;5.50;1.60;;;8.70;99.90;;;;;;6578075;21;20217;-88
2024/04/17 07:52:34;;;;;;;2.27;1.23;;;8.70;99.90;;;;;;6577022;21;20237;-88
2024/04/17 07:55:00;;;;;;;3.70;1.30;;;8.80;99.90;;;;;;6577671;21;20277;-88
2024/04/17 07:57:29;;;;;;;2.77;1.50;;;8.70;99.90;;;;;;6577114;21;20246;-89
2024/04/17 07:59:55;;;;;;;5.40;1.60;;;8.80;99.90;;;;;;6576856;21;20221;-89
2024/04/17 08:02:27;;;;;;;1.90;1.27;;;9.00;99.90;;;;;;6575190;21;20761;-86
2024/04/17 08:04:54;;;;;;;2.87;1.77;;;9.00;99.90;;;;;;6517735;21;20254;-86
2024/04/17 08:19:58;;;;;;;1.53;1.27;;;9.10;99.90;;;;;;6631260;21;20239;-82
2024/04/17 08:22:24;;;;;;;4.00;1.40;;;9.20;99.90;;;;;;6630848;21;20220;-82
2024/04/17 08:24:55;;;;;;;2.63;1.30;;;9.20;99.90;;;;;;6630817;21;20228;-82
2024/04/17 08:27:21;;;;;;;4.03;1.50;;;9.20;99.90;;;;;;6630491;21;20236;-82
2024/04/17 08:29:50;;;;;;;2.57;1.20;;;9.30;99.90;;;;;;6631540;21;20280;-82
2024/04/17 08:32:16;;;;;;;2.50;1.20;;;9.30;99.90;;;;;;6628458;21;20220;-81
2024/04/17 08:34:44;;;;;;;2.23;1.30;;;9.30;99.90;;;;;;6630050;21;20274;-82
2024/04/17 08:37:10;;;;;;;1.40;1.00;;;9.30;99.90;;;;;;6632196;21;20236;-82
2024/04/17 08:39:39;;;;;;;2.97;1.10;;;9.30;99.90;;;;;;6632004;21;20275;-82
2024/04/17 08:42:12;;;;;;;1.77;1.30;;;9.30;99.90;;;;;;6629752;21;20263;-82
2024/04/17 08:44:43;;;;;;;4.03;1.03;;;9.30;99.90;;;;;;6631582;21;20255;-82
2024/04/17 08:47:11;;;;;;;1.63;0.90;;;9.50;99.90;;;;;;6632244;21;20232;-82
2024/04/17 08:49:42;;;;;;;2.70;0.97;;;9.70;99.90;;;;;;6630660;21;20344;-82
2024/04/17 08:52:11;;;;;;;1.90;1.03;;;9.80;99.90;;;;;;6632896;21;20267;-82
2024/04/17 08:54:43;;;;;;;3.57;1.17;;;10.00;99.90;;;;;;6633730;21;20274;-82
2024/04/17 08:57:12;;;;;;;2.43;1.07;;;9.90;99.90;;;;;;6633779;21;20228;-82
2024/04/17 08:59:41;;;;;;;3.57;1.10;;;9.90;99.90;;;;;;6633994;21;20260;-82
2024/04/17 09:02:13;;;;;;;2.87;1.07;;;10.10;99.90;;;;;;6635402;21;20227;-82
2024/04/17 09:04:43;;;;;;;3.93;1.17;;;10.20;99.90;;;;;;6633530;21;20333;-82
2024/04/17 09:07:09;;;;;;;1.93;0.70;;;10.20;99.90;;;;;;6632513;21;20291;-82
2024/04/17 09:09:40;;;;;;;2.07;0.90;;;10.30;99.90;;;;;;6632993;21;20254;-82
2024/04/17 09:12:07;;;;;;;1.20;0.73;;;10.30;99.90;;;;;;6632470;21;20317;-82
2024/04/17 09:14:38;;;;;;;4.10;1.00;;;10.30;99.90;;;;;;6633351;21;20696;-82
2024/04/17 09:17:04;;;;;;;2.27;0.87;;;10.20;99.90;;;;;;6632286;21;20236;-82
2024/04/17 09:19:33;;;;;;;1.00;0.70;;;10.20;99.90;;;;;;6631729;21;20232;-82
2024/04/17 09:21:59;;;;;;;1.70;1.13;;;10.10;99.90;;;;;;6631304;21;20216;-82
2024/04/17 09:24:28;;;;;;;3.27;1.10;;;10.10;99.90;;;;;;6631573;21;20228;-82
2024/04/17 09:26:53;;;;;;;3.90;0.90;;;10.10;99.90;;;;;;6630300;21;20236;-82
2024/04/17 09:29:22;;;;;;;3.07;1.00;;;10.00;99.90;;;;;;6632101;21;20228;-82
2024/04/17 09:31:50;;;;;;;2.87;1.00;;;10.00;99.90;;;;;;6631258;21;20274;-83
2024/04/17 09:34:21;;;;;;;3.40;1.10;;;10.10;99.90;;;;;;6630922;21;20220;-82
2024/04/17 09:36:48;;;;;;;1.90;0.77;;;10.10;99.90;;;;;;6631468;21;20707;-82
2024/04/17 09:39:17;;;;;;;4.30;1.10;;;10.10;99.90;;;;;;6630872;21;20279;-83
2024/04/17 09:41:43;;;;;;;1.03;0.80;;;10.30;99.90;;;;;;6630829;21;20280;-82
2024/04/17 09:44:14;;;;;;;1.30;0.90;;;10.50;99.90;;;;;;6631249;21;20266;-82
2024/04/17 09:46:44;;;;;;;3.23;0.80;;;10.40;99.90;;;;;;6629714;21;20232;-82
2024/04/17 09:49:21;;;;;;;2.07;0.87;;;10.60;99.90;;;;;;6631825;21;20235;-82
2024/04/17 09:51:54;;;;;;;2.30;0.70;;;10.60;99.90;;;;;;6631048;21;20220;-82
2024/04/17 09:54:23;;;;;;;2.60;0.97;;;10.70;99.90;;;;;;6631155;21;20572;-82
2024/04/17 09:56:50;;;;;;;1.77;1.13;;;10.60;99.90;;;;;;6631958;21;20282;-82
2024/04/17 09:59:21;;;;;;;2.30;0.70;;;10.40;99.90;;;;;;6632882;21;20548;-82
2024/04/17 10:01:48;;;;;;;2.03;0.80;;;10.30;99.90;;;;;;6634517;21;20240;-82
2024/04/17 10:04:19;;;;;;;1.87;1.00;;;10.40;99.90;;;;;;6632200;21;20224;-82
2024/04/17 10:06:46;;;;;;;1.47;1.03;;;10.40;99.90;;;;;;6631715;21;20283;-82
2024/04/17 10:09:16;;;;;;;2.10;0.90;;;10.40;99.90;;;;;;6629010;21;20228;-82
2024/04/17 10:11:43;;;;;;;2.63;1.00;;;10.50;99.90;;;;;;6631283;21;20265;-83
2024/04/17 10:14:17;;;;;;;3.10;1.23;;;10.50;99.90;;;;;;6630848;21;20263;-83
2024/04/17 10:16:44;;;;;;;1.70;1.00;;;10.50;99.90;;;;;;6631087;21;20244;-82
2024/04/17 10:19:14;;;;;;;1.63;0.70;;;10.50;99.90;;;;;;6630698;21;20519;-83
2024/04/17 10:21:42;;;;;;;0.90;0.67;;;10.60;99.90;;;;;;6630959;21;20271;-78
2024/04/17 10:24:13;;;;;;;2.30;1.07;;;10.60;99.90;;;;;;6628594;21;20224;-81
2024/04/17 10:26:44;;;;;;;1.53;0.80;;;10.50;99.90;;;;;;6629467;21;20228;-78
2024/04/17 10:29:19;;;;;;;3.87;0.93;;;10.50;99.90;;;;;;6628627;21;20267;-78
2024/04/17 10:31:59;;;;;;;0.90;0.80;;;10.90;99.90;;;;;;6628983;21;20278;-78
2024/04/17 10:34:29;;;;;;;1.93;0.70;;;10.90;99.90;;;;;;6628959;21;20224;-78
2024/04/17 10:36:59;;;;;;;2.80;0.83;;;11.10;99.90;;;;;;6629182;21;20267;-79
2024/04/17 10:39:28;;;;;;;1.70;0.70;;;11.20;99.90;;;;;;6629862;21;20377;-80
2024/04/17 10:41:54;;;;;;;1.00;0.50;;;11.30;99.90;;;;;;6629854;21;20738;-81
2024/04/17 10:44:23;;;;;;;1.30;0.80;;;11.30;99.90;;;;;;6590716;21;20252;-81
2024/04/17 10:46:59;;;;;;;1.53;0.60;;;11.30;99.90;;;;;;6629641;21;20279;-81
2024/04/17 10:49:28;;;;;;;1.00;0.50;;;11.20;99.90;;;;;;6631011;21;20757;-81
2024/04/17 10:51:57;;;;;;;2.17;0.70;;;11.10;99.90;;;;;;6630730;21;20267;-81
2024/04/17 10:54:26;;;;;;;1.83;0.63;;;10.90;99.90;;;;;;6628169;21;20255;-81
2024/04/17 10:56:55;;;;;;;1.17;0.60;;;10.70;99.90;;;;;;6630386;21;20239;-81
2024/04/17 10:59:29;;;;;;;2.13;1.07;;;10.60;99.90;;;;;;6625745;21;20236;-81
2024/04/17 11:01:55;;;;;;;1.70;1.30;;;10.50;99.90;;;;;;6631924;21;20224;-81
2024/04/17 11:04:25;;;;;;;1.23;0.83;;;10.50;99.90;;;;;;6631800;21;20267;-81
2024/04/17 11:06:51;;;;;;;2.30;0.70;;;10.50;99.90;;;;;;6630045;21;20314;-81
2024/04/17 11:09:22;;;;;;;2.27;0.70;;;10.40;99.90;;;;;;6626236;21;20228;-81
2024/04/17 11:11:50;;;;;;;1.33;0.70;;;10.40;99.90;;;;;;6628104;21;20270;-83
2024/04/17 11:14:18;;;;;;;2.00;0.90;;;10.40;99.90;;;;;;6631598;21;20684;-81
2024/04/17 11:16:44;;;;;;;0.77;0.70;;;10.40;99.90;;;;;;6632289;21;20286;-81
2024/04/17 11:19:13;;;;;;;1.47;0.80;;;10.30;99.90;;;;;;6630970;21;20232;-81
2024/04/17 11:21:39;;;;;;;1.83;0.90;;;10.40;99.90;;;;;;6630446;21;20224;-81
2024/04/17 11:24:08;;;;;;;1.17;0.70;;;10.40;99.90;;;;;;6632020;21;20224;-81
2024/04/17 11:26:36;;;;;;;1.80;0.93;;;10.40;99.90;;;;;;6631906;21;20236;-81
2024/04/17 11:29:05;;;;;;;3.27;1.00;;;10.50;99.90;;;;;;6629051;21;20755;-80
2024/04/17 11:31:31;;;;;;;1.10;0.90;;;10.50;99.90;;;;;;6632315;21;20219;-81
2024/04/17 11:34:00;;;;;;;1.40;0.90;;;10.60;99.90;;;;;;6631036;21;20266;-81
2024/04/17 11:36:26;;;;;;;2.00;0.83;;;10.60;99.90;;;;;;6630406;21;20425;-80
2024/04/17 11:38:55;;;;;;;1.97;1.20;;;10.70;99.90;;;;;;6630576;21;20276;-80
2024/04/17 11:41:22;;;;;;;2.43;1.13;;;10.70;99.90;;;;;;6630146;21;20312;-80
2024/04/17 11:43:53;;;;;;;2.47;0.83;;;10.90;99.90;;;;;;6630637;21;20274;-80
2024/04/17 11:46:19;;;;;;;1.07;0.90;;;11.10;99.90;;;;;;6628905;21;20232;-80
2024/04/17 11:48:47;;;;;;;0.90;0.90;;;11.30;99.90;;;;;;6629312;21;20266;-80
2024/04/17 11:51:13;;;;;;;4.80;2.40;;;11.50;99.90;;;;;;6629569;21;20245;-80
2024/04/17 11:53:42;;;;;;;1.40;1.00;;;11.70;99.90;;;;;;6630169;21;20279;-80
2024/04/17 11:56:08;;;;;;;1.90;1.13;;;12.00;99.90;;;;;;6630600;21;20248;-80
2024/04/17 11:58:36;;;;;;;1.10;0.70;;;12.20;99.90;;;;;;6629756;21;20630;-80
2024/04/17 12:01:06;;;;;;;2.47;0.80;;;12.20;99.90;;;;;;6632098;21;20224;-80
2024/04/17 12:03:35;;;;;;;1.07;0.90;;;12.30;99.90;;;;;;6632546;21;20236;-80
2024/04/17 12:06:00;;;;;;;1.00;0.80;;;12.40;99.90;;;;;;6630968;21;20236;-80
2024/04/17 12:08:29;;;;;;;1.90;0.80;;;12.50;99.90;;;;;;6630272;21;20377;-81
2024/04/17 12:10:55;;;;;;;2.03;0.60;;;12.50;99.90;;;;;;6630976;21;20224;-81
2024/04/17 12:13:27;;;;;;;1.50;0.90;;;12.50;99.90;;;;;;6632299;21;20216;-81
2024/04/17 12:15:53;;;;;;;1.13;0.67;;;12.40;99.90;;;;;;6631296;21;20236;-81
2024/04/17 12:18:24;;;;;;;3.67;1.00;;;12.40;99.90;;;;;;6630275;21;20326;-80
2024/04/17 12:20:50;;;;;;;2.00;1.00;;;12.50;99.90;;;;;;6631857;21;20217;-80
2024/04/17 12:23:20;;;;;;;1.87;0.87;;;12.70;99.90;;;;;;6632241;21;20262;-80
2024/04/17 12:28:33;;;;;;;1.03;0.70;;;12.80;99.90;;;;;;6636409;21;20263;-80
2024/04/17 12:31:03;;;;;;;2.30;0.70;;;12.70;99.90;;;;;;6633278;21;20220;-79
2024/04/17 12:33:35;;;;;;;1.57;1.00;;;12.60;99.90;;;;;;6632602;21;20796;-80
2024/04/17 12:36:03;;;;;;;2.30;1.30;;;12.60;99.90;;;;;;6631509;21;20236;-81
2024/04/17 12:38:32;;;;;;;1.70;0.90;;;12.50;99.90;;;;;;6631665;21;20217;-80
2024/04/17 12:41:00;;;;;;;1.43;0.80;;;12.40;99.90;;;;;;6632234;21;20394;-80
2024/04/17 12:43:26;;;;;;;1.47;0.90;;;12.30;99.90;;;;;;6632016;21;20291;-80
2024/04/17 12:45:55;;;;;;;2.03;0.80;;;12.20;99.90;;;;;;6631159;21;20236;-80
2024/04/17 12:48:24;;;;;;;0.63;0.63;;;12.20;99.90;;;;;;6632488;21;20228;-80
2024/04/17 12:50:55;;;;;;;1.37;0.70;;;12.20;99.90;;;;;;6631207;21;20259;-80
2024/04/17 12:53:24;;;;;;;1.93;0.77;;;12.30;99.90;;;;;;6632049;21;20256;-82
2024/04/17 12:55:54;;;;;;;0.90;0.90;;;12.30;99.90;;;;;;6629596;21;20239;-82
2024/04/17 12:58:22;;;;;;;1.77;1.10;;;12.60;99.90;;;;;;6629370;21;20695;-82
2024/04/17 13:01:42;;;;;;;2.80;0.83;;;12.80;99.90;;;;;;6629374;21;20262;-82
2024/04/17 13:34:33;;;;;;;1.13;0.80;;;13.40;99.90;;;;;;6178249;23;20616;-83
2024/04/17 13:36:59;;;;;;;1.60;0.83;;;13.30;99.90;;;;;;6178323;23;20362;-83
2024/04/17 13:39:28;;;;;;;1.23;0.70;;;13.10;99.90;;;;;;6339740;22;20225;-82
2024/04/17 13:41:54;;;;;;;1.13;0.70;;;12.70;99.90;;;;;;6368949;22;20234;-82
2024/04/17 13:44:32;;;;;;;1.43;0.87;;;12.40;99.90;;;;;;6369624;22;20279;-82
2024/04/17 13:51:06;;;;;;;1.40;0.80;;;11.20;99.90;;;;;;6323997;22;20790;-81
2024/04/17 13:53:42;;;;;;;1.87;0.70;;;10.60;99.90;;;;;;6246298;22;20226;-79
2024/04/17 13:56:28;;;;;;;1.47;0.87;;;10.20;99.90;;;;;;6320976;22;20316;-80
2024/04/17 13:59:15;;;;;;;0.87;0.70;;;10.10;99.90;;;;;;6410124;21;20297;-79
2024/04/17 14:01:43;;;;;;;2.00;0.70;;;10.10;99.90;;;;;;6633048;21;20258;-79
2024/04/17 14:04:09;;;;;;;1.40;1.00;;;10.20;99.90;;;;;;6630799;21;20229;-81
2024/04/17 14:06:41;;;;;;;1.03;0.90;;;10.20;99.90;;;;;;6630421;21;20275;-81
2024/04/17 14:09:07;;;;;;;1.43;0.90;;;10.10;99.90;;;;;;6637736;21;20267;-80
2024/04/17 14:11:35;;;;;;;1.37;1.10;;;10.20;99.90;;;;;;6633232;21;20546;-79
2024/04/17 14:14:01;;;;;;;1.00;0.90;;;10.20;99.90;;;;;;6632840;21;20262;-79
2024/04/17 14:16:30;;;;;;;1.23;1.10;;;10.10;99.90;;;;;;6631233;21;20233;-79
2024/04/17 14:18:56;;;;;;;1.60;1.00;;;9.90;99.90;;;;;;6630866;21;20572;-78
2024/04/17 14:21:24;;;;;;;2.27;1.20;;;9.80;99.90;;;;;;6629783;21;20292;-78
2024/04/17 14:23:53;;;;;;;5.80;1.80;;;10.20;99.90;;;;;;6632872;21;20224;-81
2024/04/17 14:26:24;;;;;;;1.50;1.37;;;10.40;99.90;;;;;;6632901;21;20282;-81
2024/04/17 14:28:50;;;;;;;1.83;1.20;;;10.40;99.90;;;;;;6634173;21;20263;-81
2024/04/17 14:31:19;;;;;;;1.67;0.93;;;10.70;99.90;;;;;;6633033;21;20220;-81
2024/04/17 14:33:45;;;;;;;1.07;0.97;;;10.50;99.90;;;;;;6632164;21;20220;-81
2024/04/17 14:36:14;;;;;;;1.73;1.30;;;10.40;99.90;;;;;;6634228;21;20282;-81
2024/04/17 14:38:41;;;;;;;1.83;1.20;;;10.60;99.90;;;;;;6633871;21;20312;-81
2024/04/17 14:41:12;;;;;;;1.87;0.97;;;10.90;99.90;;;;;;6634261;21;20220;-81
2024/04/17 14:43:38;;;;;;;2.07;1.20;;;10.70;99.90;;;;;;6633988;21;20358;-81
2024/04/17 14:46:08;;;;;;;1.87;1.30;;;10.90;99.90;;;;;;6632677;21;20248;-81
2024/04/17 14:48:34;;;;;;;1.17;0.70;;;11.20;99.90;;;;;;6633536;21;20232;-81
2024/04/17 14:51:04;;;;;;;2.27;0.90;;;11.00;99.90;;;;;;6633751;21;20228;-81
2024/04/17 14:53:31;;;;;;;2.73;0.90;;;11.20;99.90;;;;;;6633649;21;20251;-81
2024/04/17 14:56:01;;;;;;;1.40;0.90;;;11.40;99.90;;;;;;6633113;21;20627;-81
2024/04/17 14:58:30;;;;;;;1.57;1.03;;;11.60;99.90;;;;;;6632912;21;20236;-81
2024/04/17 15:00:59;;;;;;;1.23;0.93;;;11.70;99.90;;;;;;6634673;21;20224;-81
2024/04/17 15:03:27;;;;;;;2.13;0.90;;;11.80;99.90;;;;;;6631068;21;20224;-81
2024/04/17 15:08:45;;;;;;;0.90;0.70;;;13.00;99.90;;;;;;6633621;21;20333;-82
2024/04/17 15:11:12;;;;;;;2.63;0.83;;;13.10;99.90;;;;;;6630335;21;20263;-82
2024/04/17 15:13:54;;;;;;;3.17;0.90;;;13.30;99.90;;;;;;6624936;21;20224;-82
2024/04/17 15:16:21;;;;;;;3.63;0.90;;;14.60;99.90;;;;;;6629500;21;20364;-82
2024/04/17 15:18:50;;;;;;;3.77;0.80;;;16.20;99.90;;;;;;6616635;21;20232;-82
2024/04/17 15:21:17;;;;;;;1.33;0.60;;;17.00;99.90;;;;;;6632283;21;20239;-82
2024/04/17 15:23:47;;;;;;;2.13;0.70;;;18.70;99.90;;;;;;6626527;21;20236;-83